createdAt,value
2023-02-18T00:02:32.930Z,7.10
2023-02-18T00:07:36.611Z,6.00
2023-02-18T00:12:42.506Z,5.40
2023-02-18T00:17:44.140Z,6.20
2023-02-18T00:22:45.764Z,5.00
2023-02-18T00:27:47.465Z,5.10
2023-02-18T00:32:49.555Z,3.00
2023-02-18T00:37:53.155Z,4.90
2023-02-18T00:42:54.839Z,3.30
2023-02-18T00:47:56.739Z,5.30
2023-02-18T00:52:58.403Z,5.80
2023-02-18T00:58:00.104Z,4.80
2023-02-18T01:03:01.927Z,4.20
2023-02-18T01:08:05.073Z,4.00
2023-02-18T01:13:06.760Z,3.70
2023-02-18T01:18:09.632Z,6.00
2023-02-18T01:23:12.276Z,3.20
2023-02-18T01:28:15.030Z,3.60
2023-02-18T01:33:16.695Z,4.80
2023-02-18T01:38:18.387Z,3.80
2023-02-18T01:43:21.081Z,4.60
2023-02-18T01:48:47.840Z,5.20
2023-02-18T01:53:56.674Z,3.20
2023-02-18T01:59:01.568Z,5.70
2023-02-18T02:04:03.674Z,6.30
2023-02-18T02:09:10.648Z,5.80
2023-02-18T02:14:27.740Z,2.00
2023-02-18T02:19:42.418Z,2.00
2023-02-18T02:24:59.492Z,4.60
2023-02-18T02:30:27.571Z,8.60
2023-02-18T02:35:48.755Z,7.40
2023-02-18T02:41:19.198Z,4.00
2023-02-18T02:46:31.512Z,6.60
2023-02-18T02:51:47.138Z,7.10
2023-02-18T02:56:49.489Z,6.80
2023-02-18T03:02:02.986Z,5.50
2023-02-18T03:07:26.167Z,4.50
2023-02-18T03:17:58.357Z,4.70
2023-02-18T03:23:04.456Z,3.60
2023-02-18T03:28:12.558Z,4.60
2023-02-18T03:33:20.708Z,5.60
2023-02-18T03:38:35.362Z,3.60
2023-02-18T03:43:37.072Z,3.60
2023-02-18T03:48:38.782Z,3.80
2023-02-18T03:53:40.685Z,2.40
2023-02-18T03:58:42.321Z,2.80
2023-02-18T04:03:44.044Z,4.20
2023-02-18T04:08:45.900Z,1.80
2023-02-18T04:13:47.555Z,1.60
2023-02-18T04:18:49.187Z,3.20
2023-02-18T04:23:50.861Z,2.30
2023-02-18T04:28:52.494Z,2.30
2023-02-18T04:33:54.192Z,2.30
2023-02-18T04:38:55.888Z,1.40
2023-02-18T04:43:59.642Z,1.90
2023-02-18T04:49:01.311Z,1.50
2023-02-18T04:54:03.939Z,2.10
2023-02-18T04:59:05.764Z,1.90
2023-02-18T05:04:07.495Z,4.20
2023-02-18T05:09:10.201Z,4.20
2023-02-18T05:14:11.909Z,4.00
2023-02-18T05:19:16.971Z,4.00
2023-02-18T05:24:18.665Z,3.30
2023-02-18T05:29:20.321Z,4.40
2023-02-18T05:34:22.044Z,4.10
2023-02-18T05:39:23.817Z,2.90
2023-02-18T05:44:31.378Z,1.60
2023-02-18T05:49:35.173Z,8.30
2023-02-18T05:54:37.702Z,5.20
2023-02-18T05:59:39.411Z,5.10
2023-02-18T06:04:41.502Z,3.20
2023-02-18T06:09:43.195Z,4.90
2023-02-18T06:14:45.210Z,2.70
2023-02-18T06:19:47.005Z,5.30
2023-02-18T06:24:48.640Z,4.50
2023-02-18T06:29:50.364Z,3.10
2023-02-18T06:34:52.012Z,4.10
2023-02-18T06:39:53.707Z,3.30
2023-02-18T06:44:55.316Z,1.80
2023-02-18T06:49:57.051Z,2.20
2023-02-18T06:54:58.975Z,3.40
2023-02-18T07:00:01.889Z,2.00
2023-02-18T07:05:03.864Z,2.00
2023-02-18T07:10:06.757Z,4.00
2023-02-18T07:15:09.061Z,2.50
2023-02-18T07:20:10.922Z,4.00
2023-02-18T07:25:13.096Z,4.40
2023-02-18T07:30:15.379Z,3.60
2023-02-18T07:35:17.502Z,3.30
2023-02-18T07:40:22.992Z,3.30
2023-02-18T07:45:25.111Z,4.50
2023-02-18T07:50:26.989Z,2.10
2023-02-18T07:55:58.649Z,4.60
2023-02-18T08:01:00.823Z,4.60
2023-02-18T08:06:04.557Z,3.60
2023-02-18T08:11:18.550Z,7.30
2023-02-18T08:16:21.894Z,2.50
2023-02-18T08:21:25.532Z,4.70
2023-02-18T08:26:27.666Z,4.90
2023-02-18T08:31:30.829Z,3.80
2023-02-18T08:36:32.575Z,4.00
2023-02-18T08:41:34.344Z,6.10
2023-02-18T08:46:36.548Z,4.70
2023-02-18T08:51:38.920Z,5.70
2023-02-18T08:56:40.763Z,9.50
2023-02-18T09:01:42.664Z,5.90
2023-02-18T09:06:44.393Z,7.10
2023-02-18T09:11:46.397Z,8.80
2023-02-18T09:16:48.065Z,7.90
2023-02-18T09:21:50.311Z,9.00
2023-02-18T09:26:52.015Z,13.50
2023-02-18T09:31:53.885Z,8.40
2023-02-18T09:36:55.656Z,7.60
2023-02-18T09:42:17.685Z,7.90
2023-02-18T09:47:30.890Z,3.50
2023-02-18T09:52:38.645Z,5.00
2023-02-18T09:57:45.116Z,3.80
2023-02-18T10:02:59.150Z,2.50
2023-02-18T10:08:07.846Z,2.60
2023-02-18T10:13:15.621Z,2.20
2023-02-18T10:23:42.376Z,2.80
2023-02-18T10:28:45.381Z,3.60
2023-02-18T10:33:55.476Z,2.70
2023-02-18T10:39:23.306Z,3.80
2023-02-18T10:44:43.999Z,5.60
2023-02-18T10:49:51.658Z,5.40
2023-02-18T10:55:04.578Z,5.70
2023-02-18T11:00:24.122Z,3.40
2023-02-18T11:05:28.051Z,4.30
2023-02-18T11:10:34.125Z,3.70
2023-02-18T11:15:36.753Z,5.30
2023-02-18T11:20:39.487Z,5.80
2023-02-18T11:25:52.580Z,3.80
2023-02-18T11:30:58.365Z,4.00
2023-02-18T11:36:13.345Z,5.30
2023-02-18T11:41:18.969Z,5.90
2023-02-18T11:46:24.664Z,5.80
2023-02-18T11:51:38.915Z,18.00
2023-02-18T11:56:40.690Z,11.00
2023-02-18T12:01:57.427Z,7.60
2023-02-18T12:12:16.487Z,7.50
2023-02-18T12:17:33.479Z,11.20
2023-02-18T12:22:56.739Z,7.10
2023-02-18T12:28:21.460Z,6.50
2023-02-18T12:34:01.977Z,11.50
2023-02-18T12:39:11.393Z,19.20
2023-02-18T12:44:38.183Z,43.70
2023-02-18T12:50:12.863Z,34.00
2023-02-18T12:55:52.068Z,12.50
2023-02-18T13:00:56.542Z,9.40
2023-02-18T13:06:17.472Z,13.60
2023-02-18T13:11:39.660Z,17.80
2023-02-18T13:16:44.857Z,14.90
2023-02-18T13:21:49.909Z,15.30
2023-02-18T13:26:58.695Z,24.60
2023-02-18T13:32:33.449Z,23.10
2023-02-18T13:37:43.792Z,21.50
2023-02-18T13:47:49.882Z,20.50
2023-02-18T13:52:52.654Z,22.60
2023-02-18T13:57:55.739Z,28.50
2023-02-18T14:03:00.391Z,25.00
2023-02-18T14:08:34.590Z,38.90
2023-02-18T14:13:40.834Z,35.50
2023-02-18T14:18:42.661Z,34.40
2023-02-18T14:23:59.613Z,31.90
2023-02-18T14:29:06.813Z,23.60
2023-02-18T14:34:14.690Z,34.30
2023-02-18T14:39:37.146Z,31.70
2023-02-18T14:44:52.845Z,28.70
2023-02-18T14:49:59.848Z,26.30
2023-02-18T14:55:04.022Z,25.50
2023-02-18T15:00:07.130Z,29.20
2023-02-18T15:05:16.495Z,34.40
2023-02-18T15:10:19.611Z,42.80
2023-02-18T15:15:26.465Z,44.40
2023-02-18T15:20:42.081Z,53.10
2023-02-18T15:25:50.340Z,52.40
2023-02-18T15:30:52.605Z,52.10
2023-02-18T15:36:06.384Z,39.80
2023-02-18T15:41:11.946Z,45.10
2023-02-18T15:46:14.561Z,40.30
2023-02-18T15:51:22.498Z,29.80
2023-02-18T15:56:34.066Z,24.10
2023-02-18T16:01:36.348Z,29.10
2023-02-18T16:06:46.156Z,25.90
2023-02-18T16:11:52.120Z,18.70
2023-02-18T16:16:59.657Z,21.30
2023-02-18T16:22:18.574Z,16.10
2023-02-18T16:27:20.580Z,20.20
2023-02-18T16:32:22.570Z,23.20
2023-02-18T16:37:39.520Z,22.80
2023-02-18T16:42:41.174Z,23.00
2023-02-18T16:47:47.324Z,14.80
2023-02-18T16:52:50.634Z,10.20
2023-02-18T16:57:52.822Z,9.50
2023-02-18T17:02:58.292Z,6.30
2023-02-18T17:08:14.437Z,7.20
2023-02-18T17:13:21.745Z,6.30
2023-02-18T17:18:24.403Z,4.50
2023-02-18T17:23:26.284Z,5.30
2023-02-18T17:28:27.994Z,6.00
2023-02-18T17:33:29.652Z,7.10
2023-02-18T17:38:34.519Z,6.90
2023-02-18T17:43:37.389Z,6.40
2023-02-18T17:48:40.259Z,5.20
2023-02-18T17:53:41.907Z,5.30
2023-02-18T17:58:43.973Z,6.10
2023-02-18T18:03:45.690Z,5.60
2023-02-18T18:08:48.263Z,5.60
2023-02-18T18:13:50.543Z,5.10
2023-02-18T18:18:52.624Z,8.10
2023-02-18T18:23:54.285Z,3.10
2023-02-18T18:28:56.021Z,4.50
2023-02-18T18:33:57.678Z,4.30
2023-02-18T18:38:59.279Z,3.70
2023-02-18T18:44:01.123Z,3.90
2023-02-18T18:49:02.775Z,3.50
2023-02-18T18:54:04.628Z,4.30
2023-02-18T18:59:08.472Z,3.00
2023-02-18T19:09:11.781Z,3.00
2023-02-18T19:14:14.193Z,3.40
2023-02-18T19:19:16.189Z,3.60
2023-02-18T19:24:17.805Z,3.80
2023-02-18T19:29:23.252Z,2.70
2023-02-18T19:34:24.980Z,4.00
2023-02-18T19:39:26.825Z,4.80
2023-02-18T19:44:33.749Z,2.60
2023-02-18T19:49:35.459Z,3.70
2023-02-18T19:54:37.134Z,3.40
2023-02-18T19:59:39.713Z,2.90
2023-02-18T20:04:42.174Z,3.30
2023-02-18T20:09:44.497Z,3.40
2023-02-18T20:14:46.409Z,4.50
2023-02-18T20:19:48.357Z,2.30
2023-02-18T20:24:50.394Z,4.20
2023-02-18T20:29:52.172Z,2.50
2023-02-18T20:34:53.848Z,3.70
2023-02-18T20:39:55.520Z,2.60
2023-02-18T20:44:57.341Z,2.60
2023-02-18T20:49:59.147Z,3.20
2023-02-18T20:55:01.000Z,3.10
2023-02-18T21:00:04.386Z,1.80
2023-02-18T21:05:06.349Z,3.10
2023-02-18T21:10:08.355Z,4.40
2023-02-18T21:15:10.201Z,6.10
2023-02-18T21:20:11.874Z,5.80
2023-02-18T21:25:13.571Z,4.80
2023-02-18T21:30:15.329Z,5.30
2023-02-18T21:35:17.667Z,3.10
2023-02-18T21:40:19.553Z,4.50
2023-02-18T21:45:21.511Z,5.10
2023-02-18T21:50:23.437Z,3.30
2023-02-18T21:55:26.227Z,4.50
2023-02-18T22:00:28.036Z,3.00
2023-02-18T22:05:30.953Z,7.00
2023-02-18T22:10:33.567Z,8.50
2023-02-18T22:15:38.478Z,6.20
2023-02-18T22:20:40.915Z,4.00
2023-02-18T22:25:42.607Z,4.70
2023-02-18T22:30:44.314Z,3.40
2023-02-18T22:35:45.999Z,3.80
2023-02-18T22:40:50.447Z,3.00
2023-02-18T22:45:52.410Z,3.70
2023-02-18T22:50:54.278Z,2.50
2023-02-18T22:56:00.733Z,2.80
2023-02-18T23:01:03.571Z,3.10
2023-02-18T23:06:06.092Z,4.10
2023-02-18T23:11:12.182Z,4.80
2023-02-18T23:16:15.860Z,2.10
2023-02-18T23:21:17.576Z,3.60
2023-02-18T23:26:21.566Z,2.60
2023-02-18T23:31:25.911Z,2.50
2023-02-18T23:36:29.951Z,3.70
2023-02-18T23:41:32.074Z,1.90
2023-02-18T23:46:34.906Z,3.10
2023-02-18T23:51:36.653Z,3.00
2023-02-18T23:56:38.991Z,2.80
